Terminal Aerodrome Forecast
Issued by NWS

Home | Current Version | Previous Version | Text Only | Print | Product List | Glossary On
Versions: 1 2 3 4 5 6 7 8 9 10 11 12 13 14 15 16 17 18
034
FTUS43 KDLH 220540
TAFBRD
TAF
KBRD 220540Z 2206/2306 16009KT P6SM SCT005 OVC150
      TEMPO 2206/2209 3SM BR SCT005 BKN150
     FM220900 VRB03KT 4SM BR VCSH SCT010 BKN050
      TEMPO 2210/2213 1SM -TSRA BR BKN010CB
     FM221500 21005KT P6SM BKN040
     FM221700 29009KT P6SM BKN050
     FM222200 30009KT P6SM SCT050=

USA.gov is the U.S. government's official web portal to all federal, state and local government web resources and services.